sensor_id;sensor_type;location;lat;lon;timestamp;temperature;humidity
19516;DHT22;9901;47.448;7.692;2022-10-31T00:01:19;12.70;99.90
19516;DHT22;9901;47.448;7.692;2022-10-31T00:03:45;12.70;99.90
19516;DHT22;9901;47.448;7.692;2022-10-31T00:06:11;12.70;99.90
19516;DHT22;9901;47.448;7.692;2022-10-31T00:08:37;12.70;99.90
19516;DHT22;9901;47.448;7.692;2022-10-31T00:11:03;12.60;99.90
19516;DHT22;9901;47.448;7.692;2022-10-31T00:13:28;12.60;99.90
19516;DHT22;9901;47.448;7.692;2022-10-31T00:15:54;12.60;99.90
19516;DHT22;9901;47.448;7.692;2022-10-31T00:18:20;12.60;99.90
19516;DHT22;9901;47.448;7.692;2022-10-31T00:20:45;12.50;99.90
19516;DHT22;9901;47.448;7.692;2022-10-31T00:23:11;12.50;99.90
19516;DHT22;9901;47.448;7.692;2022-10-31T00:25:39;12.50;99.90
19516;DHT22;9901;47.448;7.692;2022-10-31T00:28:06;12.50;99.90
19516;DHT22;9901;47.448;7.692;2022-10-31T00:31:05;12.50;99.90
19516;DHT22;9901;47.448;7.692;2022-10-31T00:33:33;12.50;99.90
19516;DHT22;9901;47.448;7.692;2022-10-31T00:35:59;12.50;99.90
19516;DHT22;9901;47.448;7.692;2022-10-31T00:38:25;12.40;99.90
19516;DHT22;9901;47.448;7.692;2022-10-31T00:40:50;12.40;99.90
19516;DHT22;9901;47.448;7.692;2022-10-31T00:43:16;12.40;99.90
19516;DHT22;9901;47.448;7.692;2022-10-31T00:45:43;12.40;99.90
19516;DHT22;9901;47.448;7.692;2022-10-31T00:48:26;12.40;99.90
19516;DHT22;9901;47.448;7.692;2022-10-31T00:50:51;12.30;99.90
19516;DHT22;9901;47.448;7.692;2022-10-31T00:53:17;12.30;99.90
19516;DHT22;9901;47.448;7.692;2022-10-31T00:55:43;12.30;99.90
19516;DHT22;9901;47.448;7.692;2022-10-31T00:58:08;12.30;99.90
19516;DHT22;9901;47.448;7.692;2022-10-31T01:00:34;12.30;99.90
19516;DHT22;9901;47.448;7.692;2022-10-31T01:03:09;12.20;99.90
19516;DHT22;9901;47.448;7.692;2022-10-31T01:05:35;12.20;99.90
19516;DHT22;9901;47.448;7.692;2022-10-31T01:08:00;12.20;99.90
19516;DHT22;9901;47.448;7.692;2022-10-31T01:11:01;12.20;99.90
19516;DHT22;9901;47.448;7.692;2022-10-31T01:13:47;12.20;99.90
19516;DHT22;9901;47.448;7.692;2022-10-31T01:16:16;12.20;99.90
19516;DHT22;9901;47.448;7.692;2022-10-31T01:18:42;12.20;99.90
19516;DHT22;9901;47.448;7.692;2022-10-31T01:21:17;12.20;99.90
19516;DHT22;9901;47.448;7.692;2022-10-31T01:23:43;12.20;99.90
19516;DHT22;9901;47.448;7.692;2022-10-31T01:26:17;12.20;99.90
19516;DHT22;9901;47.448;7.692;2022-10-31T01:28:49;12.20;99.90
19516;DHT22;9901;47.448;7.692;2022-10-31T01:31:17;12.10;99.90
19516;DHT22;9901;47.448;7.692;2022-10-31T01:33:53;12.10;99.90
19516;DHT22;9901;47.448;7.692;2022-10-31T01:36:30;12.10;99.90
19516;DHT22;9901;47.448;7.692;2022-10-31T01:39:08;12.00;99.90
19516;DHT22;9901;47.448;7.692;2022-10-31T01:41:37;12.00;99.90
19516;DHT22;9901;47.448;7.692;2022-10-31T01:47:04;11.90;99.90
19516;DHT22;9901;47.448;7.692;2022-10-31T01:49:55;11.90;99.90
19516;DHT22;9901;47.448;7.692;2022-10-31T01:52:40;12.00;99.90
19516;DHT22;9901;47.448;7.692;2022-10-31T01:55:17;11.90;99.90
19516;DHT22;9901;47.448;7.692;2022-10-31T01:57:47;12.00;99.90
19516;DHT22;9901;47.448;7.692;2022-10-31T02:00:15;12.00;99.90
19516;DHT22;9901;47.448;7.692;2022-10-31T02:02:42;12.00;99.90
19516;DHT22;9901;47.448;7.692;2022-10-31T02:05:23;11.90;99.90
19516;DHT22;9901;47.448;7.692;2022-10-31T02:07:54;11.90;99.90
19516;DHT22;9901;47.448;7.692;2022-10-31T02:10:22;11.90;99.90
19516;DHT22;9901;47.448;7.692;2022-10-31T02:12:51;11.90;99.90
19516;DHT22;9901;47.448;7.692;2022-10-31T02:15:25;11.90;99.90
19516;DHT22;9901;47.448;7.692;2022-10-31T02:17:51;11.90;99.90
19516;DHT22;9901;47.448;7.692;2022-10-31T02:20:19;11.90;99.90
19516;DHT22;9901;47.448;7.692;2022-10-31T02:26:03;11.90;99.90
19516;DHT22;9901;47.448;7.692;2022-10-31T02:28:56;11.90;99.90
19516;DHT22;9901;47.448;7.692;2022-10-31T02:31:46;11.80;99.90
19516;DHT22;9901;47.448;7.692;2022-10-31T02:34:26;11.80;99.90
19516;DHT22;9901;47.448;7.692;2022-10-31T02:42:32;11.80;99.90
19516;DHT22;9901;47.448;7.692;2022-10-31T02:47:34;11.80;99.90
19516;DHT22;9901;47.448;7.692;2022-10-31T02:50:17;11.80;99.90
19516;DHT22;9901;47.448;7.692;2022-10-31T02:52:44;11.80;99.90
19516;DHT22;9901;47.448;7.692;2022-10-31T03:00:44;11.80;99.90
19516;DHT22;9901;47.448;7.692;2022-10-31T03:04:02;11.80;99.90
19516;DHT22;9901;47.448;7.692;2022-10-31T03:06:20;11.80;99.90
19516;DHT22;9901;47.448;7.692;2022-10-31T03:11:17;11.80;99.90
19516;DHT22;9901;47.448;7.692;2022-10-31T03:14:01;11.80;99.90
19516;DHT22;9901;47.448;7.692;2022-10-31T03:16:50;11.80;99.90
19516;DHT22;9901;47.448;7.692;2022-10-31T03:19:26;11.90;99.90
19516;DHT22;9901;47.448;7.692;2022-10-31T03:22:12;11.80;99.90
19516;DHT22;9901;47.448;7.692;2022-10-31T03:24:41;11.80;99.90
19516;DHT22;9901;47.448;7.692;2022-10-31T03:27:10;11.80;99.90
19516;DHT22;9901;47.448;7.692;2022-10-31T03:29:40;11.80;99.90
19516;DHT22;9901;47.448;7.692;2022-10-31T03:32:12;11.80;99.90
19516;DHT22;9901;47.448;7.692;2022-10-31T03:34:40;11.80;99.90
19516;DHT22;9901;47.448;7.692;2022-10-31T03:37:09;11.80;99.90
19516;DHT22;9901;47.448;7.692;2022-10-31T03:39:38;11.80;99.90
19516;DHT22;9901;47.448;7.692;2022-10-31T03:45:27;11.80;99.90
19516;DHT22;9901;47.448;7.692;2022-10-31T03:47:55;11.80;99.90
19516;DHT22;9901;47.448;7.692;2022-10-31T03:50:24;11.80;99.90
19516;DHT22;9901;47.448;7.692;2022-10-31T03:53:07;11.80;99.90
19516;DHT22;9901;47.448;7.692;2022-10-31T03:56:22;11.80;99.90
19516;DHT22;9901;47.448;7.692;2022-10-31T03:58:52;11.80;99.90
19516;DHT22;9901;47.448;7.692;2022-10-31T04:01:21;11.80;99.90
19516;DHT22;9901;47.448;7.692;2022-10-31T04:03:49;11.80;99.90
19516;DHT22;9901;47.448;7.692;2022-10-31T04:06:17;11.70;99.90
19516;DHT22;9901;47.448;7.692;2022-10-31T04:08:54;11.70;99.90
19516;DHT22;9901;47.448;7.692;2022-10-31T04:11:24;11.70;99.90
19516;DHT22;9901;47.448;7.692;2022-10-31T04:13:51;11.70;99.90
19516;DHT22;9901;47.448;7.692;2022-10-31T04:16:18;11.70;99.90
19516;DHT22;9901;47.448;7.692;2022-10-31T04:18:45;11.70;99.90
19516;DHT22;9901;47.448;7.692;2022-10-31T04:21:10;11.60;99.90
19516;DHT22;9901;47.448;7.692;2022-10-31T04:23:36;11.70;99.90
19516;DHT22;9901;47.448;7.692;2022-10-31T04:26:02;11.60;99.90
19516;DHT22;9901;47.448;7.692;2022-10-31T04:28:28;11.60;99.90
19516;DHT22;9901;47.448;7.692;2022-10-31T04:30:53;11.60;99.90
19516;DHT22;9901;47.448;7.692;2022-10-31T04:33:19;11.60;99.90
19516;DHT22;9901;47.448;7.692;2022-10-31T04:35:59;11.60;99.90
19516;DHT22;9901;47.448;7.692;2022-10-31T04:38:25;11.60;99.90
19516;DHT22;9901;47.448;7.692;2022-10-31T04:40:50;11.60;99.90
19516;DHT22;9901;47.448;7.692;2022-10-31T04:43:17;11.60;99.90
19516;DHT22;9901;47.448;7.692;2022-10-31T04:45:43;11.60;99.90
19516;DHT22;9901;47.448;7.692;2022-10-31T04:48:15;11.50;99.90
19516;DHT22;9901;47.448;7.692;2022-10-31T04:50:40;11.50;99.90
19516;DHT22;9901;47.448;7.692;2022-10-31T04:53:06;11.50;99.90
19516;DHT22;9901;47.448;7.692;2022-10-31T04:55:32;11.60;99.90
19516;DHT22;9901;47.448;7.692;2022-10-31T04:57:58;11.60;99.90
19516;DHT22;9901;47.448;7.692;2022-10-31T05:00:35;11.60;99.90
19516;DHT22;9901;47.448;7.692;2022-10-31T05:05:30;11.50;99.90
19516;DHT22;9901;47.448;7.692;2022-10-31T05:07:56;11.50;99.90
19516;DHT22;9901;47.448;7.692;2022-10-31T05:10:27;11.50;99.90
19516;DHT22;9901;47.448;7.692;2022-10-31T05:13:15;11.50;99.90
19516;DHT22;9901;47.448;7.692;2022-10-31T05:15:41;11.50;99.90
19516;DHT22;9901;47.448;7.692;2022-10-31T05:18:06;11.50;99.90
19516;DHT22;9901;47.448;7.692;2022-10-31T05:20:33;11.50;99.90
19516;DHT22;9901;47.448;7.692;2022-10-31T05:22:59;11.50;99.90
19516;DHT22;9901;47.448;7.692;2022-10-31T05:25:28;11.50;99.90
19516;DHT22;9901;47.448;7.692;2022-10-31T05:27:55;11.40;99.90
19516;DHT22;9901;47.448;7.692;2022-10-31T05:30:27;11.50;99.90
19516;DHT22;9901;47.448;7.692;2022-10-31T05:32:54;11.50;99.90
19516;DHT22;9901;47.448;7.692;2022-10-31T05:35:25;11.50;99.90
19516;DHT22;9901;47.448;7.692;2022-10-31T05:37:52;11.50;99.90
19516;DHT22;9901;47.448;7.692;2022-10-31T05:40:18;11.50;99.90
19516;DHT22;9901;47.448;7.692;2022-10-31T05:42:45;11.50;99.90
19516;DHT22;9901;47.448;7.692;2022-10-31T05:45:14;11.40;99.90
19516;DHT22;9901;47.448;7.692;2022-10-31T05:47:41;11.40;99.90
19516;DHT22;9901;47.448;7.692;2022-10-31T05:50:07;11.40;99.90
19516;DHT22;9901;47.448;7.692;2022-10-31T05:52:34;11.40;99.90
19516;DHT22;9901;47.448;7.692;2022-10-31T05:54:59;11.40;99.90
19516;DHT22;9901;47.448;7.692;2022-10-31T05:57:25;11.40;99.90
19516;DHT22;9901;47.448;7.692;2022-10-31T05:59:51;11.40;99.90
19516;DHT22;9901;47.448;7.692;2022-10-31T06:02:21;11.40;99.90
19516;DHT22;9901;47.448;7.692;2022-10-31T06:04:47;11.30;99.90
19516;DHT22;9901;47.448;7.692;2022-10-31T06:07:13;11.40;99.90
19516;DHT22;9901;47.448;7.692;2022-10-31T06:09:47;11.40;99.90
19516;DHT22;9901;47.448;7.692;2022-10-31T06:12:13;11.40;99.90
19516;DHT22;9901;47.448;7.692;2022-10-31T06:14:38;11.40;99.90
19516;DHT22;9901;47.448;7.692;2022-10-31T06:17:04;11.40;99.90
19516;DHT22;9901;47.448;7.692;2022-10-31T06:19:30;11.50;99.90
19516;DHT22;9901;47.448;7.692;2022-10-31T06:21:56;11.50;99.90
19516;DHT22;9901;47.448;7.692;2022-10-31T06:24:22;11.50;99.90
19516;DHT22;9901;47.448;7.692;2022-10-31T06:26:47;11.50;99.90
19516;DHT22;9901;47.448;7.692;2022-10-31T06:29:16;11.50;99.90
19516;DHT22;9901;47.448;7.692;2022-10-31T06:31:42;11.60;99.90
19516;DHT22;9901;47.448;7.692;2022-10-31T06:34:14;11.60;99.90
19516;DHT22;9901;47.448;7.692;2022-10-31T06:36:39;11.60;99.90
19516;DHT22;9901;47.448;7.692;2022-10-31T06:39:05;11.60;99.90
19516;DHT22;9901;47.448;7.692;2022-10-31T06:41:34;11.70;99.90
19516;DHT22;9901;47.448;7.692;2022-10-31T06:44:02;11.70;99.90
19516;DHT22;9901;47.448;7.692;2022-10-31T06:49:00;11.80;99.90
19516;DHT22;9901;47.448;7.692;2022-10-31T06:51:26;11.80;99.90
19516;DHT22;9901;47.448;7.692;2022-10-31T06:53:51;11.90;99.90
19516;DHT22;9901;47.448;7.692;2022-10-31T06:56:17;11.90;99.90
19516;DHT22;9901;47.448;7.692;2022-10-31T07:01:13;11.90;99.90
19516;DHT22;9901;47.448;7.692;2022-10-31T09:25:06;14.80;99.90
19516;DHT22;9901;47.448;7.692;2022-10-31T09:27:33;14.80;99.90
19516;DHT22;9901;47.448;7.692;2022-10-31T09:29:59;14.80;99.90
19516;DHT22;9901;47.448;7.692;2022-10-31T09:32:24;14.80;99.90
19516;DHT22;9901;47.448;7.692;2022-10-31T09:34:50;14.80;99.90
19516;DHT22;9901;47.448;7.692;2022-10-31T09:37:16;14.90;99.90
19516;DHT22;9901;47.448;7.692;2022-10-31T09:39:42;14.80;99.90
19516;DHT22;9901;47.448;7.692;2022-10-31T09:42:27;14.90;99.90
19516;DHT22;9901;47.448;7.692;2022-10-31T09:50:24;14.90;99.90
19516;DHT22;9901;47.448;7.692;2022-10-31T09:53:12;14.90;99.90
19516;DHT22;9901;47.448;7.692;2022-10-31T09:55:44;14.90;99.90
19516;DHT22;9901;47.448;7.692;2022-10-31T09:58:25;14.90;99.90
19516;DHT22;9901;47.448;7.692;2022-10-31T10:00:53;14.90;99.90
19516;DHT22;9901;47.448;7.692;2022-10-31T10:03:35;14.90;99.90
19516;DHT22;9901;47.448;7.692;2022-10-31T10:06:19;15.00;99.90
19516;DHT22;9901;47.448;7.692;2022-10-31T10:08:45;15.00;99.90
19516;DHT22;9901;47.448;7.692;2022-10-31T10:11:19;15.10;99.90
19516;DHT22;9901;47.448;7.692;2022-10-31T10:32:52;17.50;99.90
19516;DHT22;9901;47.448;7.692;2022-10-31T10:35:38;17.90;99.90
19516;DHT22;9901;47.448;7.692;2022-10-31T10:38:30;18.30;99.90
19516;DHT22;9901;47.448;7.692;2022-10-31T10:40:54;18.50;99.90
19516;DHT22;9901;47.448;7.692;2022-10-31T10:49:30;18.40;99.90
19516;DHT22;9901;47.448;7.692;2022-10-31T10:52:32;18.50;99.90
19516;DHT22;9901;47.448;7.692;2022-10-31T10:55:36;18.70;99.90
19516;DHT22;9901;47.448;7.692;2022-10-31T10:58:09;19.10;99.90
19516;DHT22;9901;47.448;7.692;2022-10-31T11:00:41;19.70;99.90
19516;DHT22;9901;47.448;7.692;2022-10-31T11:03:09;20.20;99.90
19516;DHT22;9901;47.448;7.692;2022-10-31T11:05:51;20.40;99.90
19516;DHT22;9901;47.448;7.692;2022-10-31T11:08:31;20.40;99.90
19516;DHT22;9901;47.448;7.692;2022-10-31T11:11:18;20.70;99.90
19516;DHT22;9901;47.448;7.692;2022-10-31T11:14:16;20.60;99.90
19516;DHT22;9901;47.448;7.692;2022-10-31T11:16:45;20.20;99.90
19516;DHT22;9901;47.448;7.692;2022-10-31T11:19:15;19.90;99.90
19516;DHT22;9901;47.448;7.692;2022-10-31T11:21:42;19.80;99.90
19516;DHT22;9901;47.448;7.692;2022-10-31T11:26:37;20.00;99.90
19516;DHT22;9901;47.448;7.692;2022-10-31T11:29:27;20.40;99.90
19516;DHT22;9901;47.448;7.692;2022-10-31T11:32:00;20.90;99.90
19516;DHT22;9901;47.448;7.692;2022-10-31T11:34:37;21.40;99.90
19516;DHT22;9901;47.448;7.692;2022-10-31T11:37:20;21.60;99.90
19516;DHT22;9901;47.448;7.692;2022-10-31T11:39:51;21.90;99.90
19516;DHT22;9901;47.448;7.692;2022-10-31T11:42:21;22.00;99.90
19516;DHT22;9901;47.448;7.692;2022-10-31T11:44:47;22.10;99.90
19516;DHT22;9901;47.448;7.692;2022-10-31T11:47:17;22.00;99.90
19516;DHT22;9901;47.448;7.692;2022-10-31T11:49:52;22.00;99.90
19516;DHT22;9901;47.448;7.692;2022-10-31T11:52:23;22.00;99.90
19516;DHT22;9901;47.448;7.692;2022-10-31T11:54:53;22.10;99.90
19516;DHT22;9901;47.448;7.692;2022-10-31T11:57:52;22.30;99.90
19516;DHT22;9901;47.448;7.692;2022-10-31T12:08:30;23.10;99.90
19516;DHT22;9901;47.448;7.692;2022-10-31T12:11:05;23.30;99.90
19516;DHT22;9901;47.448;7.692;2022-10-31T12:13:43;23.10;99.90
19516;DHT22;9901;47.448;7.692;2022-10-31T12:19:11;23.30;99.90
19516;DHT22;9901;47.448;7.692;2022-10-31T12:39:21;23.60;99.90
19516;DHT22;9901;47.448;7.692;2022-10-31T12:44:52;23.70;99.90
19516;DHT22;9901;47.448;7.692;2022-10-31T12:54:22;23.60;99.90
19516;DHT22;9901;47.448;7.692;2022-10-31T12:59:33;23.40;99.90
19516;DHT22;9901;47.448;7.692;2022-10-31T13:06:58;22.50;99.90
19516;DHT22;9901;47.448;7.692;2022-10-31T13:09:32;22.40;99.90
19516;DHT22;9901;47.448;7.692;2022-10-31T13:12:04;22.60;99.90
19516;DHT22;9901;47.448;7.692;2022-10-31T13:14:39;22.70;99.90
19516;DHT22;9901;47.448;7.692;2022-10-31T13:17:18;22.70;99.90
19516;DHT22;9901;47.448;7.692;2022-10-31T13:22:48;22.80;99.90
19516;DHT22;9901;47.448;7.692;2022-10-31T13:25:19;22.70;99.90
19516;DHT22;9901;47.448;7.692;2022-10-31T13:28:09;22.40;99.90
19516;DHT22;9901;47.448;7.692;2022-10-31T13:30:39;22.30;99.90
19516;DHT22;9901;47.448;7.692;2022-10-31T13:38:32;21.80;99.90
19516;DHT22;9901;47.448;7.692;2022-10-31T13:41:04;21.60;99.90
19516;DHT22;9901;47.448;7.692;2022-10-31T13:44:17;21.30;99.90
19516;DHT22;9901;47.448;7.692;2022-10-31T13:51:51;21.10;99.90
19516;DHT22;9901;47.448;7.692;2022-10-31T13:54:23;21.20;99.90
19516;DHT22;9901;47.448;7.692;2022-10-31T13:56:52;21.50;99.90
19516;DHT22;9901;47.448;7.692;2022-10-31T13:59:24;21.70;99.90
19516;DHT22;9901;47.448;7.692;2022-10-31T14:01:57;21.70;99.90
19516;DHT22;9901;47.448;7.692;2022-10-31T14:04:36;21.70;99.90
19516;DHT22;9901;47.448;7.692;2022-10-31T14:07:11;21.70;99.90
19516;DHT22;9901;47.448;7.692;2022-10-31T14:12:44;21.60;99.90
19516;DHT22;9901;47.448;7.692;2022-10-31T14:15:25;21.40;99.90
19516;DHT22;9901;47.448;7.692;2022-10-31T14:18:00;21.30;99.90
19516;DHT22;9901;47.448;7.692;2022-10-31T14:26:19;21.20;99.90
19516;DHT22;9901;47.448;7.692;2022-10-31T14:28:46;21.10;99.90
19516;DHT22;9901;47.448;7.692;2022-10-31T14:31:35;20.90;99.90
19516;DHT22;9901;47.448;7.692;2022-10-31T14:34:24;20.80;99.90
19516;DHT22;9901;47.448;7.692;2022-10-31T14:39:41;20.60;99.90
19516;DHT22;9901;47.448;7.692;2022-10-31T14:50:09;20.40;99.90
19516;DHT22;9901;47.448;7.692;2022-10-31T14:52:39;20.30;99.90
19516;DHT22;9901;47.448;7.692;2022-10-31T14:55:10;20.30;99.90
19516;DHT22;9901;47.448;7.692;2022-10-31T14:57:38;20.20;99.90
19516;DHT22;9901;47.448;7.692;2022-10-31T15:00:07;20.20;99.90
19516;DHT22;9901;47.448;7.692;2022-10-31T15:03:03;20.00;99.90
19516;DHT22;9901;47.448;7.692;2022-10-31T15:05:32;19.90;99.90
19516;DHT22;9901;47.448;7.692;2022-10-31T15:07:59;19.70;99.90
19516;DHT22;9901;47.448;7.692;2022-10-31T15:10:31;19.60;99.90
19516;DHT22;9901;47.448;7.692;2022-10-31T15:13:28;19.50;99.90
19516;DHT22;9901;47.448;7.692;2022-10-31T15:15:55;19.30;99.90
19516;DHT22;9901;47.448;7.692;2022-10-31T15:21:44;19.10;99.90
19516;DHT22;9901;47.448;7.692;2022-10-31T15:24:15;19.00;99.90
19516;DHT22;9901;47.448;7.692;2022-10-31T15:26:52;18.90;99.90
19516;DHT22;9901;47.448;7.692;2022-10-31T15:29:23;18.80;99.90
19516;DHT22;9901;47.448;7.692;2022-10-31T15:31:53;18.70;99.90
19516;DHT22;9901;47.448;7.692;2022-10-31T15:36:51;18.60;99.90
19516;DHT22;9901;47.448;7.692;2022-10-31T15:39:23;18.50;99.90
19516;DHT22;9901;47.448;7.692;2022-10-31T15:41:51;18.30;99.90
19516;DHT22;9901;47.448;7.692;2022-10-31T15:44:29;18.20;99.90
19516;DHT22;9901;47.448;7.692;2022-10-31T15:47:05;18.10;99.90
19516;DHT22;9901;47.448;7.692;2022-10-31T15:49:57;18.00;99.90
19516;DHT22;9901;47.448;7.692;2022-10-31T15:52:34;17.90;99.90
19516;DHT22;9901;47.448;7.692;2022-10-31T15:57:47;17.80;99.90
19516;DHT22;9901;47.448;7.692;2022-10-31T16:00:33;17.70;99.90
19516;DHT22;9901;47.448;7.692;2022-10-31T16:03:33;17.70;99.90
19516;DHT22;9901;47.448;7.692;2022-10-31T16:06:02;17.70;99.90
19516;DHT22;9901;47.448;7.692;2022-10-31T16:16:28;17.40;99.90
19516;DHT22;9901;47.448;7.692;2022-10-31T16:18:55;17.30;99.90
19516;DHT22;9901;47.448;7.692;2022-10-31T16:21:35;17.30;99.90
19516;DHT22;9901;47.448;7.692;2022-10-31T16:24:17;17.20;99.90
19516;DHT22;9901;47.448;7.692;2022-10-31T16:26:53;17.10;99.90
19516;DHT22;9901;47.448;7.692;2022-10-31T16:29:26;17.10;99.90
19516;DHT22;9901;47.448;7.692;2022-10-31T16:31:51;17.10;99.90
19516;DHT22;9901;47.448;7.692;2022-10-31T16:34:20;17.20;99.90
19516;DHT22;9901;47.448;7.692;2022-10-31T16:36:46;17.10;99.90
19516;DHT22;9901;47.448;7.692;2022-10-31T16:39:12;17.00;99.90
19516;DHT22;9901;47.448;7.692;2022-10-31T16:41:41;16.90;99.90
19516;DHT22;9901;47.448;7.692;2022-10-31T16:44:15;16.90;99.90
19516;DHT22;9901;47.448;7.692;2022-10-31T16:46:43;16.90;99.90
19516;DHT22;9901;47.448;7.692;2022-10-31T16:49:09;16.70;99.90
19516;DHT22;9901;47.448;7.692;2022-10-31T16:52:09;16.70;99.90
19516;DHT22;9901;47.448;7.692;2022-10-31T16:54:35;16.70;99.90
19516;DHT22;9901;47.448;7.692;2022-10-31T16:57:03;16.60;99.90
19516;DHT22;9901;47.448;7.692;2022-10-31T16:59:34;16.50;99.90
19516;DHT22;9901;47.448;7.692;2022-10-31T17:02:00;16.50;99.90
19516;DHT22;9901;47.448;7.692;2022-10-31T17:04:26;16.40;99.90
19516;DHT22;9901;47.448;7.692;2022-10-31T17:06:52;16.40;99.90
19516;DHT22;9901;47.448;7.692;2022-10-31T17:09:18;16.40;99.90
19516;DHT22;9901;47.448;7.692;2022-10-31T17:11:50;16.40;99.90
19516;DHT22;9901;47.448;7.692;2022-10-31T17:14:17;16.30;99.90
19516;DHT22;9901;47.448;7.692;2022-10-31T17:16:43;16.30;99.90
19516;DHT22;9901;47.448;7.692;2022-10-31T17:19:10;16.30;99.90
19516;DHT22;9901;47.448;7.692;2022-10-31T17:21:36;16.30;99.90
19516;DHT22;9901;47.448;7.692;2022-10-31T17:24:03;16.30;99.90
19516;DHT22;9901;47.448;7.692;2022-10-31T17:26:29;16.30;99.90
19516;DHT22;9901;47.448;7.692;2022-10-31T17:28:54;16.30;99.90
19516;DHT22;9901;47.448;7.692;2022-10-31T17:31:23;16.30;99.90
19516;DHT22;9901;47.448;7.692;2022-10-31T17:33:54;16.30;99.90
19516;DHT22;9901;47.448;7.692;2022-10-31T17:36:19;16.30;99.90
19516;DHT22;9901;47.448;7.692;2022-10-31T17:38:45;16.20;99.90
19516;DHT22;9901;47.448;7.692;2022-10-31T17:41:15;16.20;99.90
19516;DHT22;9901;47.448;7.692;2022-10-31T17:43:40;16.10;99.90
19516;DHT22;9901;47.448;7.692;2022-10-31T17:46:06;16.00;99.90
19516;DHT22;9901;47.448;7.692;2022-10-31T17:48:33;15.90;99.90
19516;DHT22;9901;47.448;7.692;2022-10-31T17:51:00;15.90;99.90
19516;DHT22;9901;47.448;7.692;2022-10-31T17:53:31;15.90;99.90
19516;DHT22;9901;47.448;7.692;2022-10-31T17:56:08;15.80;99.90
19516;DHT22;9901;47.448;7.692;2022-10-31T17:58:35;15.90;99.90
19516;DHT22;9901;47.448;7.692;2022-10-31T18:01:13;15.90;99.90
19516;DHT22;9901;47.448;7.692;2022-10-31T18:03:42;15.80;99.90
19516;DHT22;9901;47.448;7.692;2022-10-31T18:06:09;15.70;99.90
19516;DHT22;9901;47.448;7.692;2022-10-31T18:08:38;15.70;99.90
19516;DHT22;9901;47.448;7.692;2022-10-31T18:11:09;15.60;99.90
19516;DHT22;9901;47.448;7.692;2022-10-31T18:16:06;15.50;99.90
19516;DHT22;9901;47.448;7.692;2022-10-31T18:18:33;15.50;99.90
19516;DHT22;9901;47.448;7.692;2022-10-31T18:23:25;15.30;99.90
19516;DHT22;9901;47.448;7.692;2022-10-31T18:26:14;15.30;99.90
19516;DHT22;9901;47.448;7.692;2022-10-31T18:28:40;15.20;99.90
19516;DHT22;9901;47.448;7.692;2022-10-31T18:31:06;15.20;99.90
19516;DHT22;9901;47.448;7.692;2022-10-31T18:33:32;15.10;99.90
19516;DHT22;9901;47.448;7.692;2022-10-31T18:36:05;15.10;99.90
19516;DHT22;9901;47.448;7.692;2022-10-31T18:38:37;15.10;99.90
19516;DHT22;9901;47.448;7.692;2022-10-31T18:41:02;15.10;99.90
19516;DHT22;9901;47.448;7.692;2022-10-31T18:43:28;15.00;99.90
19516;DHT22;9901;47.448;7.692;2022-10-31T18:45:54;15.00;99.90
19516;DHT22;9901;47.448;7.692;2022-10-31T18:48:19;14.90;99.90
19516;DHT22;9901;47.448;7.692;2022-10-31T18:50:45;14.90;99.90
19516;DHT22;9901;47.448;7.692;2022-10-31T18:53:11;14.90;99.90
19516;DHT22;9901;47.448;7.692;2022-10-31T18:55:40;14.90;99.90
19516;DHT22;9901;47.448;7.692;2022-10-31T18:58:06;14.90;99.90
19516;DHT22;9901;47.448;7.692;2022-10-31T19:00:32;14.80;99.90
19516;DHT22;9901;47.448;7.692;2022-10-31T19:02:57;14.70;99.90
19516;DHT22;9901;47.448;7.692;2022-10-31T19:05:23;14.70;99.90
19516;DHT22;9901;47.448;7.692;2022-10-31T19:07:49;14.60;99.90
19516;DHT22;9901;47.448;7.692;2022-10-31T19:10:15;14.50;99.90
19516;DHT22;9901;47.448;7.692;2022-10-31T19:12:40;14.50;99.90
19516;DHT22;9901;47.448;7.692;2022-10-31T19:15:06;14.40;99.90
19516;DHT22;9901;47.448;7.692;2022-10-31T19:17:32;14.40;99.90
19516;DHT22;9901;47.448;7.692;2022-10-31T19:19:57;14.30;99.90
19516;DHT22;9901;47.448;7.692;2022-10-31T19:22:23;14.30;99.90
19516;DHT22;9901;47.448;7.692;2022-10-31T19:24:49;14.20;99.90
19516;DHT22;9901;47.448;7.692;2022-10-31T19:27:14;14.20;99.90
19516;DHT22;9901;47.448;7.692;2022-10-31T19:29:40;14.20;99.90
19516;DHT22;9901;47.448;7.692;2022-10-31T19:32:20;14.20;99.90
19516;DHT22;9901;47.448;7.692;2022-10-31T19:34:46;14.20;99.90
19516;DHT22;9901;47.448;7.692;2022-10-31T19:37:22;14.10;99.90
19516;DHT22;9901;47.448;7.692;2022-10-31T19:39:48;14.10;99.90
19516;DHT22;9901;47.448;7.692;2022-10-31T19:42:14;14.10;99.90
19516;DHT22;9901;47.448;7.692;2022-10-31T19:44:39;14.10;99.90
19516;DHT22;9901;47.448;7.692;2022-10-31T19:47:05;14.00;99.90
19516;DHT22;9901;47.448;7.692;2022-10-31T19:50:00;14.10;99.90
19516;DHT22;9901;47.448;7.692;2022-10-31T19:52:26;14.00;99.90
19516;DHT22;9901;47.448;7.692;2022-10-31T19:54:51;14.00;99.90
19516;DHT22;9901;47.448;7.692;2022-10-31T19:57:17;14.00;99.90
19516;DHT22;9901;47.448;7.692;2022-10-31T19:59:46;13.90;99.90
19516;DHT22;9901;47.448;7.692;2022-10-31T20:02:12;13.90;99.90
19516;DHT22;9901;47.448;7.692;2022-10-31T20:04:44;13.90;99.90
19516;DHT22;9901;47.448;7.692;2022-10-31T20:07:09;13.90;99.90
19516;DHT22;9901;47.448;7.692;2022-10-31T20:09:35;13.90;99.90
19516;DHT22;9901;47.448;7.692;2022-10-31T20:12:01;13.80;99.90
19516;DHT22;9901;47.448;7.692;2022-10-31T20:14:27;13.70;99.90
19516;DHT22;9901;47.448;7.692;2022-10-31T20:16:52;13.70;99.90
19516;DHT22;9901;47.448;7.692;2022-10-31T20:19:18;13.70;99.90
19516;DHT22;9901;47.448;7.692;2022-10-31T20:21:44;13.70;99.90
19516;DHT22;9901;47.448;7.692;2022-10-31T20:24:10;13.70;99.90
19516;DHT22;9901;47.448;7.692;2022-10-31T20:26:38;13.70;99.90
19516;DHT22;9901;47.448;7.692;2022-10-31T20:29:08;13.70;99.90
19516;DHT22;9901;47.448;7.692;2022-10-31T20:31:36;13.70;99.90
19516;DHT22;9901;47.448;7.692;2022-10-31T20:34:02;13.70;99.90
19516;DHT22;9901;47.448;7.692;2022-10-31T20:36:28;13.70;99.90
19516;DHT22;9901;47.448;7.692;2022-10-31T20:38:55;13.70;99.90
19516;DHT22;9901;47.448;7.692;2022-10-31T20:41:21;13.80;99.90
19516;DHT22;9901;47.448;7.692;2022-10-31T20:43:47;13.70;99.90
19516;DHT22;9901;47.448;7.692;2022-10-31T20:46:15;13.80;99.90
19516;DHT22;9901;47.448;7.692;2022-10-31T20:48:41;13.80;99.90
19516;DHT22;9901;47.448;7.692;2022-10-31T20:51:11;13.80;99.90
19516;DHT22;9901;47.448;7.692;2022-10-31T20:54:01;13.80;99.90
19516;DHT22;9901;47.448;7.692;2022-10-31T20:56:27;13.70;99.90
19516;DHT22;9901;47.448;7.692;2022-10-31T20:58:55;13.70;99.90
19516;DHT22;9901;47.448;7.692;2022-10-31T21:01:23;13.60;99.90
19516;DHT22;9901;47.448;7.692;2022-10-31T21:03:50;13.60;99.90
19516;DHT22;9901;47.448;7.692;2022-10-31T21:06:17;13.60;99.90
19516;DHT22;9901;47.448;7.692;2022-10-31T21:08:44;13.60;99.90
19516;DHT22;9901;47.448;7.692;2022-10-31T21:11:13;13.50;99.90
19516;DHT22;9901;47.448;7.692;2022-10-31T21:13:41;13.50;99.90
19516;DHT22;9901;47.448;7.692;2022-10-31T21:16:10;13.50;99.90
19516;DHT22;9901;47.448;7.692;2022-10-31T21:18:38;13.50;99.90